sensor_id;sensor_type;location;lat;lon;timestamp;P1;durP1;ratioP1;P2;durP2;ratioP2
23338;SDS011;11841;49.368;20.962;2023-11-21T09:01:24;18.58;;;10.50;;
23338;SDS011;11841;49.368;20.962;2023-11-21T09:04:10;15.82;;;10.07;;
23338;SDS011;11841;49.368;20.962;2023-11-21T09:06:55;13.70;;;8.63;;
23338;SDS011;11841;49.368;20.962;2023-11-21T09:09:41;13.88;;;8.35;;
23338;SDS011;11841;49.368;20.962;2023-11-21T09:12:26;13.32;;;8.35;;
23338;SDS011;11841;49.368;20.962;2023-11-21T09:15:14;11.97;;;7.93;;
23338;SDS011;11841;49.368;20.962;2023-11-21T09:18:00;14.07;;;8.90;;
23338;SDS011;11841;49.368;20.962;2023-11-21T09:20:46;16.13;;;9.05;;
23338;SDS011;11841;49.368;20.962;2023-11-21T09:23:32;16.48;;;9.63;;
23338;SDS011;11841;49.368;20.962;2023-11-21T09:26:17;10.43;;;6.63;;
23338;SDS011;11841;49.368;20.962;2023-11-21T09:29:03;9.43;;;5.95;;
23338;SDS011;11841;49.368;20.962;2023-11-21T09:31:48;10.75;;;4.97;;
23338;SDS011;11841;49.368;20.962;2023-11-21T09:34:37;9.57;;;4.53;;
23338;SDS011;11841;49.368;20.962;2023-11-21T09:37:23;6.97;;;4.82;;
23338;SDS011;11841;49.368;20.962;2023-11-21T09:40:10;6.50;;;3.42;;
23338;SDS011;11841;49.368;20.962;2023-11-21T09:42:59;5.07;;;3.58;;
23338;SDS011;11841;49.368;20.962;2023-11-21T09:45:46;8.27;;;4.68;;
23338;SDS011;11841;49.368;20.962;2023-11-21T09:48:36;7.60;;;4.85;;
23338;SDS011;11841;49.368;20.962;2023-11-21T09:51:23;15.60;;;6.43;;
23338;SDS011;11841;49.368;20.962;2023-11-21T09:54:15;9.45;;;5.07;;
23338;SDS011;11841;49.368;20.962;2023-11-21T09:57:02;7.68;;;3.88;;
23338;SDS011;11841;49.368;20.962;2023-11-21T09:59:52;8.27;;;5.00;;
23338;SDS011;11841;49.368;20.962;2023-11-21T10:02:43;5.80;;;3.55;;
23338;SDS011;11841;49.368;20.962;2023-11-21T10:05:29;2.50;;;2.10;;
23338;SDS011;11841;49.368;20.962;2023-11-21T10:08:17;4.47;;;3.20;;
23338;SDS011;11841;49.368;20.962;2023-11-21T10:11:05;4.85;;;2.33;;
23338;SDS011;11841;49.368;20.962;2023-11-21T10:13:56;3.20;;;2.45;;
23338;SDS011;11841;49.368;20.962;2023-11-21T10:16:44;2.67;;;2.30;;
23338;SDS011;11841;49.368;20.962;2023-11-21T10:19:32;2.28;;;1.95;;
23338;SDS011;11841;49.368;20.962;2023-11-21T10:22:17;4.15;;;1.77;;
23338;SDS011;11841;49.368;20.962;2023-11-21T10:25:04;5.65;;;2.08;;
23338;SDS011;11841;49.368;20.962;2023-11-21T10:27:57;2.90;;;1.83;;
23338;SDS011;11841;49.368;20.962;2023-11-21T10:30:45;3.85;;;2.45;;
23338;SDS011;11841;49.368;20.962;2023-11-21T10:33:31;3.88;;;2.17;;
23338;SDS011;11841;49.368;20.962;2023-11-21T10:36:36;3.60;;;2.13;;
23338;SDS011;11841;49.368;20.962;2023-11-21T10:39:21;2.70;;;2.00;;
23338;SDS011;11841;49.368;20.962;2023-11-21T10:42:08;2.92;;;2.10;;
23338;SDS011;11841;49.368;20.962;2023-11-21T10:44:55;2.47;;;2.15;;
23338;SDS011;11841;49.368;20.962;2023-11-21T10:47:42;3.53;;;1.85;;
23338;SDS011;11841;49.368;20.962;2023-11-21T10:50:29;2.50;;;2.00;;
23338;SDS011;11841;49.368;20.962;2023-11-21T10:53:14;2.28;;;1.83;;
23338;SDS011;11841;49.368;20.962;2023-11-21T10:56:01;2.97;;;1.75;;
23338;SDS011;11841;49.368;20.962;2023-11-21T10:58:50;3.83;;;2.30;;
23338;SDS011;11841;49.368;20.962;2023-11-21T11:01:39;3.65;;;2.13;;
23338;SDS011;11841;49.368;20.962;2023-11-21T11:04:28;4.15;;;1.92;;
23338;SDS011;11841;49.368;20.962;2023-11-21T11:07:13;2.00;;;1.80;;
23338;SDS011;11841;49.368;20.962;2023-11-21T11:10:01;3.45;;;2.20;;
23338;SDS011;11841;49.368;20.962;2023-11-21T11:12:49;2.97;;;1.92;;
23338;SDS011;11841;49.368;20.962;2023-11-21T11:15:37;2.27;;;1.87;;
23338;SDS011;11841;49.368;20.962;2023-11-21T11:18:22;6.30;;;2.40;;
23338;SDS011;11841;49.368;20.962;2023-11-21T11:24:48;2.67;;;1.67;;
23338;SDS011;11841;49.368;20.962;2023-11-21T11:33:38;1.73;;;1.63;;
23338;SDS011;11841;49.368;20.962;2023-11-21T11:36:42;3.35;;;2.28;;
23338;SDS011;11841;49.368;20.962;2023-11-21T11:42:22;2.47;;;1.75;;
23338;SDS011;11841;49.368;20.962;2023-11-21T11:45:17;3.38;;;2.40;;
23338;SDS011;11841;49.368;20.962;2023-11-21T11:48:05;20.83;;;16.17;;
23338;SDS011;11841;49.368;20.962;2023-11-21T11:51:11;9.45;;;7.43;;
23338;SDS011;11841;49.368;20.962;2023-11-21T11:54:06;5.55;;;3.55;;
23338;SDS011;11841;49.368;20.962;2023-11-21T11:56:51;3.97;;;2.03;;
23338;SDS011;11841;49.368;20.962;2023-11-21T12:00:06;5.78;;;2.38;;
23338;SDS011;11841;49.368;20.962;2023-11-21T12:03:03;5.57;;;2.38;;
23338;SDS011;11841;49.368;20.962;2023-11-21T12:05:50;2.30;;;1.90;;
23338;SDS011;11841;49.368;20.962;2023-11-21T12:08:37;3.10;;;2.22;;
23338;SDS011;11841;49.368;20.962;2023-11-21T12:11:28;4.35;;;2.33;;
23338;SDS011;11841;49.368;20.962;2023-11-21T12:14:20;4.40;;;2.00;;
23338;SDS011;11841;49.368;20.962;2023-11-21T12:17:06;5.00;;;2.40;;
23338;SDS011;11841;49.368;20.962;2023-11-21T12:19:52;4.35;;;3.03;;
23338;SDS011;11841;49.368;20.962;2023-11-21T12:22:37;2.78;;;2.08;;
23338;SDS011;11841;49.368;20.962;2023-11-21T12:25:24;3.45;;;2.65;;
23338;SDS011;11841;49.368;20.962;2023-11-21T12:28:13;9.93;;;4.25;;
23338;SDS011;11841;49.368;20.962;2023-11-21T12:30:59;11.93;;;6.53;;
23338;SDS011;11841;49.368;20.962;2023-11-21T12:33:59;3.10;;;2.38;;
23338;SDS011;11841;49.368;20.962;2023-11-21T12:36:44;5.55;;;2.80;;
23338;SDS011;11841;49.368;20.962;2023-11-21T12:39:30;7.13;;;4.15;;
23338;SDS011;11841;49.368;20.962;2023-11-21T12:42:16;6.53;;;3.20;;
23338;SDS011;11841;49.368;20.962;2023-11-21T12:48:05;7.72;;;4.90;;
23338;SDS011;11841;49.368;20.962;2023-11-21T12:50:56;5.78;;;3.00;;
23338;SDS011;11841;49.368;20.962;2023-11-21T12:53:45;5.18;;;3.20;;
23338;SDS011;11841;49.368;20.962;2023-11-21T12:56:32;6.72;;;3.25;;
23338;SDS011;11841;49.368;20.962;2023-11-21T12:59:17;6.40;;;3.08;;
23338;SDS011;11841;49.368;20.962;2023-11-21T13:02:05;4.55;;;2.80;;
23338;SDS011;11841;49.368;20.962;2023-11-21T13:04:52;11.25;;;3.20;;
23338;SDS011;11841;49.368;20.962;2023-11-21T13:07:42;5.43;;;4.38;;
23338;SDS011;11841;49.368;20.962;2023-11-21T13:10:32;11.63;;;6.50;;
23338;SDS011;11841;49.368;20.962;2023-11-21T13:13:23;14.20;;;8.93;;
23338;SDS011;11841;49.368;20.962;2023-11-21T13:16:10;11.15;;;7.25;;
23338;SDS011;11841;49.368;20.962;2023-11-21T13:18:56;20.42;;;11.98;;
23338;SDS011;11841;49.368;20.962;2023-11-21T13:21:41;22.02;;;11.88;;
23338;SDS011;11841;49.368;20.962;2023-11-21T13:24:27;15.15;;;8.15;;
23338;SDS011;11841;49.368;20.962;2023-11-21T13:27:12;21.38;;;12.80;;
23338;SDS011;11841;49.368;20.962;2023-11-21T13:30:00;12.20;;;8.93;;
23338;SDS011;11841;49.368;20.962;2023-11-21T13:32:45;14.52;;;8.55;;
23338;SDS011;11841;49.368;20.962;2023-11-21T13:35:34;14.65;;;7.20;;
23338;SDS011;11841;49.368;20.962;2023-11-21T13:38:28;8.27;;;4.90;;
23338;SDS011;11841;49.368;20.962;2023-11-21T13:41:18;12.23;;;6.63;;
23338;SDS011;11841;49.368;20.962;2023-11-21T13:44:03;12.68;;;8.90;;
23338;SDS011;11841;49.368;20.962;2023-11-21T13:47:01;10.73;;;6.50;;
23338;SDS011;11841;49.368;20.962;2023-11-21T13:49:47;10.73;;;7.45;;
23338;SDS011;11841;49.368;20.962;2023-11-21T13:52:33;7.55;;;5.00;;
23338;SDS011;11841;49.368;20.962;2023-11-21T13:55:20;3.10;;;2.80;;
23338;SDS011;11841;49.368;20.962;2023-11-21T13:58:09;5.53;;;3.20;;
23338;SDS011;11841;49.368;20.962;2023-11-21T14:00:57;5.40;;;3.03;;
23338;SDS011;11841;49.368;20.962;2023-11-21T14:03:43;6.15;;;3.10;;
23338;SDS011;11841;49.368;20.962;2023-11-21T14:06:37;3.67;;;3.00;;
23338;SDS011;11841;49.368;20.962;2023-11-21T14:09:28;3.50;;;3.00;;
23338;SDS011;11841;49.368;20.962;2023-11-21T14:12:29;4.95;;;3.45;;
23338;SDS011;11841;49.368;20.962;2023-11-21T14:15:22;5.18;;;3.40;;
23338;SDS011;11841;49.368;20.962;2023-11-21T14:18:07;6.95;;;4.10;;
23338;SDS011;11841;49.368;20.962;2023-11-21T14:20:55;6.75;;;4.20;;
23338;SDS011;11841;49.368;20.962;2023-11-21T14:23:41;22.90;;;11.52;;
23338;SDS011;11841;49.368;20.962;2023-11-21T14:26:26;29.30;;;13.27;;
23338;SDS011;11841;49.368;20.962;2023-11-21T14:29:13;6.20;;;3.08;;
23338;SDS011;11841;49.368;20.962;2023-11-21T14:32:02;4.03;;;2.25;;
23338;SDS011;11841;49.368;20.962;2023-11-21T14:34:49;6.47;;;4.15;;
23338;SDS011;11841;49.368;20.962;2023-11-21T14:37:35;11.73;;;6.40;;
23338;SDS011;11841;49.368;20.962;2023-11-21T14:40:20;14.90;;;8.07;;
23338;SDS011;11841;49.368;20.962;2023-11-21T14:43:09;16.38;;;8.95;;
23338;SDS011;11841;49.368;20.962;2023-11-21T14:45:55;14.75;;;7.85;;
23338;SDS011;11841;49.368;20.962;2023-11-21T14:48:42;10.07;;;6.05;;
23338;SDS011;11841;49.368;20.962;2023-11-21T14:51:28;9.35;;;5.10;;
23338;SDS011;11841;49.368;20.962;2023-11-21T14:57:12;4.97;;;3.85;;
23338;SDS011;11841;49.368;20.962;2023-11-21T15:00:03;9.25;;;5.13;;
23338;SDS011;11841;49.368;20.962;2023-11-21T15:02:54;7.97;;;4.72;;
23338;SDS011;11841;49.368;20.962;2023-11-21T15:05:40;8.50;;;3.90;;
23338;SDS011;11841;49.368;20.962;2023-11-21T15:08:26;19.88;;;9.68;;
23338;SDS011;11841;49.368;20.962;2023-11-21T15:11:16;11.77;;;6.82;;
23338;SDS011;11841;49.368;20.962;2023-11-21T15:14:01;26.20;;;12.48;;
23338;SDS011;11841;49.368;20.962;2023-11-21T15:16:52;18.13;;;9.68;;
23338;SDS011;11841;49.368;20.962;2023-11-21T15:19:42;17.42;;;8.15;;
23338;SDS011;11841;49.368;20.962;2023-11-21T15:22:28;16.63;;;10.13;;
23338;SDS011;11841;49.368;20.962;2023-11-21T15:25:13;19.23;;;9.57;;
23338;SDS011;11841;49.368;20.962;2023-11-21T15:27:59;12.18;;;7.20;;
23338;SDS011;11841;49.368;20.962;2023-11-21T15:30:46;18.15;;;8.90;;
23338;SDS011;11841;49.368;20.962;2023-11-21T15:36:22;31.52;;;18.80;;
23338;SDS011;11841;49.368;20.962;2023-11-21T15:39:08;46.80;;;23.10;;
23338;SDS011;11841;49.368;20.962;2023-11-21T15:41:56;43.90;;;21.30;;
23338;SDS011;11841;49.368;20.962;2023-11-21T15:44:42;20.02;;;11.07;;
23338;SDS011;11841;49.368;20.962;2023-11-21T15:47:28;18.58;;;6.38;;
23338;SDS011;11841;49.368;20.962;2023-11-21T15:50:13;10.55;;;5.70;;
23338;SDS011;11841;49.368;20.962;2023-11-21T15:53:00;7.07;;;4.80;;
23338;SDS011;11841;49.368;20.962;2023-11-21T15:55:48;11.80;;;6.50;;
23338;SDS011;11841;49.368;20.962;2023-11-21T15:58:33;8.93;;;5.88;;
23338;SDS011;11841;49.368;20.962;2023-11-21T16:01:19;9.70;;;5.32;;
23338;SDS011;11841;49.368;20.962;2023-11-21T16:04:06;10.48;;;6.20;;
23338;SDS011;11841;49.368;20.962;2023-11-21T16:06:52;17.65;;;9.95;;
23338;SDS011;11841;49.368;20.962;2023-11-21T16:09:38;14.60;;;7.05;;
23338;SDS011;11841;49.368;20.962;2023-11-21T16:12:25;8.48;;;4.95;;
23338;SDS011;11841;49.368;20.962;2023-11-21T16:15:11;13.18;;;4.78;;
23338;SDS011;11841;49.368;20.962;2023-11-21T16:17:57;17.98;;;7.13;;
23338;SDS011;11841;49.368;20.962;2023-11-21T16:20:42;33.45;;;12.43;;
23338;SDS011;11841;49.368;20.962;2023-11-21T16:23:27;21.20;;;13.02;;
23338;SDS011;11841;49.368;20.962;2023-11-21T16:26:13;30.23;;;16.05;;
23338;SDS011;11841;49.368;20.962;2023-11-21T16:28:58;32.17;;;18.15;;
23338;SDS011;11841;49.368;20.962;2023-11-21T16:31:44;29.83;;;16.83;;
23338;SDS011;11841;49.368;20.962;2023-11-21T16:34:31;48.65;;;22.50;;
23338;SDS011;11841;49.368;20.962;2023-11-21T16:37:17;34.83;;;17.60;;
23338;SDS011;11841;49.368;20.962;2023-11-21T16:40:02;12.32;;;5.97;;
23338;SDS011;11841;49.368;20.962;2023-11-21T16:42:52;13.73;;;7.00;;
23338;SDS011;11841;49.368;20.962;2023-11-21T16:45:37;19.85;;;9.13;;
23338;SDS011;11841;49.368;20.962;2023-11-21T16:48:22;21.35;;;11.80;;
23338;SDS011;11841;49.368;20.962;2023-11-21T16:51:07;28.75;;;13.32;;
23338;SDS011;11841;49.368;20.962;2023-11-21T16:53:56;29.13;;;14.07;;
23338;SDS011;11841;49.368;20.962;2023-11-21T16:56:41;26.98;;;14.20;;
23338;SDS011;11841;49.368;20.962;2023-11-21T16:59:28;24.30;;;13.85;;
23338;SDS011;11841;49.368;20.962;2023-11-21T17:02:13;24.23;;;12.18;;
23338;SDS011;11841;49.368;20.962;2023-11-21T17:05:00;17.38;;;9.27;;
23338;SDS011;11841;49.368;20.962;2023-11-21T17:07:45;13.50;;;6.68;;
23338;SDS011;11841;49.368;20.962;2023-11-21T17:10:31;12.43;;;5.10;;
23338;SDS011;11841;49.368;20.962;2023-11-21T17:13:16;9.85;;;6.25;;
23338;SDS011;11841;49.368;20.962;2023-11-21T17:16:02;13.90;;;7.50;;
23338;SDS011;11841;49.368;20.962;2023-11-21T17:18:47;16.98;;;8.65;;
23338;SDS011;11841;49.368;20.962;2023-11-21T17:21:33;19.38;;;9.90;;
23338;SDS011;11841;49.368;20.962;2023-11-21T17:24:19;29.45;;;15.90;;
23338;SDS011;11841;49.368;20.962;2023-11-21T17:27:05;29.75;;;16.13;;
23338;SDS011;11841;49.368;20.962;2023-11-21T17:29:51;35.05;;;16.52;;
23338;SDS011;11841;49.368;20.962;2023-11-21T17:32:38;42.15;;;19.50;;
23338;SDS011;11841;49.368;20.962;2023-11-21T17:35:27;27.55;;;13.88;;
23338;SDS011;11841;49.368;20.962;2023-11-21T17:38:12;22.63;;;12.13;;
23338;SDS011;11841;49.368;20.962;2023-11-21T17:40:58;16.98;;;9.57;;
23338;SDS011;11841;49.368;20.962;2023-11-21T17:43:44;17.15;;;10.07;;
23338;SDS011;11841;49.368;20.962;2023-11-21T17:46:29;19.77;;;10.35;;
23338;SDS011;11841;49.368;20.962;2023-11-21T17:49:15;21.15;;;11.23;;
23338;SDS011;11841;49.368;20.962;2023-11-21T17:52:00;18.42;;;11.45;;
23338;SDS011;11841;49.368;20.962;2023-11-21T17:54:48;26.85;;;13.90;;
23338;SDS011;11841;49.368;20.962;2023-11-21T17:57:34;29.38;;;15.93;;
23338;SDS011;11841;49.368;20.962;2023-11-21T18:00:20;27.50;;;13.23;;
23338;SDS011;11841;49.368;20.962;2023-11-21T18:03:10;18.58;;;9.43;;
23338;SDS011;11841;49.368;20.962;2023-11-21T18:05:56;16.00;;;9.10;;
23338;SDS011;11841;49.368;20.962;2023-11-21T18:08:42;12.55;;;7.72;;
23338;SDS011;11841;49.368;20.962;2023-11-21T18:11:27;15.90;;;8.63;;
23338;SDS011;11841;49.368;20.962;2023-11-21T18:14:13;13.88;;;8.48;;
23338;SDS011;11841;49.368;20.962;2023-11-21T18:16:58;18.52;;;10.30;;
23338;SDS011;11841;49.368;20.962;2023-11-21T18:19:44;17.60;;;9.77;;
23338;SDS011;11841;49.368;20.962;2023-11-21T18:22:32;16.95;;;10.60;;
23338;SDS011;11841;49.368;20.962;2023-11-21T18:25:17;14.13;;;8.98;;
23338;SDS011;11841;49.368;20.962;2023-11-21T18:28:03;18.05;;;9.48;;
23338;SDS011;11841;49.368;20.962;2023-11-21T18:30:48;16.33;;;9.63;;
23338;SDS011;11841;49.368;20.962;2023-11-21T18:33:33;14.27;;;8.65;;
23338;SDS011;11841;49.368;20.962;2023-11-21T18:36:20;8.77;;;6.07;;
23338;SDS011;11841;49.368;20.962;2023-11-21T18:39:05;12.52;;;7.47;;
23338;SDS011;11841;49.368;20.962;2023-11-21T18:41:53;14.68;;;10.85;;
23338;SDS011;11841;49.368;20.962;2023-11-21T18:44:43;10.38;;;7.55;;
23338;SDS011;11841;49.368;20.962;2023-11-21T18:47:42;13.20;;;6.80;;
23338;SDS011;11841;49.368;20.962;2023-11-21T18:50:30;9.10;;;6.35;;
23338;SDS011;11841;49.368;20.962;2023-11-21T18:53:16;13.15;;;7.78;;
23338;SDS011;11841;49.368;20.962;2023-11-21T18:56:01;12.32;;;6.65;;
23338;SDS011;11841;49.368;20.962;2023-11-21T18:58:47;12.18;;;6.60;;
23338;SDS011;11841;49.368;20.962;2023-11-21T19:01:32;17.00;;;6.72;;
23338;SDS011;11841;49.368;20.962;2023-11-21T19:04:17;14.10;;;8.45;;
23338;SDS011;11841;49.368;20.962;2023-11-21T19:07:08;20.13;;;9.85;;
23338;SDS011;11841;49.368;20.962;2023-11-21T19:09:54;19.05;;;10.00;;
23338;SDS011;11841;49.368;20.962;2023-11-21T19:12:40;23.90;;;12.50;;
23338;SDS011;11841;49.368;20.962;2023-11-21T19:15:26;20.85;;;12.55;;
23338;SDS011;11841;49.368;20.962;2023-11-21T19:18:13;17.73;;;11.82;;
23338;SDS011;11841;49.368;20.962;2023-11-21T19:20:58;27.77;;;17.50;;
23338;SDS011;11841;49.368;20.962;2023-11-21T19:23:44;13.05;;;9.68;;
23338;SDS011;11841;49.368;20.962;2023-11-21T19:26:30;17.17;;;11.38;;
23338;SDS011;11841;49.368;20.962;2023-11-21T19:29:17;22.40;;;12.10;;
23338;SDS011;11841;49.368;20.962;2023-11-21T19:32:03;15.45;;;8.50;;
23338;SDS011;11841;49.368;20.962;2023-11-21T19:34:49;13.25;;;7.22;;
23338;SDS011;11841;49.368;20.962;2023-11-21T19:37:34;17.48;;;8.48;;
23338;SDS011;11841;49.368;20.962;2023-11-21T19:40:20;16.90;;;9.80;;
23338;SDS011;11841;49.368;20.962;2023-11-21T19:43:07;19.90;;;10.05;;
23338;SDS011;11841;49.368;20.962;2023-11-21T19:45:53;19.58;;;10.48;;
23338;SDS011;11841;49.368;20.962;2023-11-21T19:48:38;14.85;;;8.30;;
23338;SDS011;11841;49.368;20.962;2023-11-21T19:51:27;13.98;;;8.18;;
23338;SDS011;11841;49.368;20.962;2023-11-21T19:54:13;13.50;;;8.15;;
23338;SDS011;11841;49.368;20.962;2023-11-21T19:56:59;17.23;;;9.10;;
23338;SDS011;11841;49.368;20.962;2023-11-21T19:59:50;15.68;;;9.27;;
23338;SDS011;11841;49.368;20.962;2023-11-21T20:02:36;15.05;;;9.20;;
23338;SDS011;11841;49.368;20.962;2023-11-21T20:05:21;22.80;;;11.60;;
23338;SDS011;11841;49.368;20.962;2023-11-21T20:08:08;27.60;;;14.88;;
23338;SDS011;11841;49.368;20.962;2023-11-21T20:10:53;21.10;;;13.73;;
23338;SDS011;11841;49.368;20.962;2023-11-21T20:13:39;15.73;;;10.57;;
23338;SDS011;11841;49.368;20.962;2023-11-21T20:16:25;26.70;;;13.70;;
23338;SDS011;11841;49.368;20.962;2023-11-21T20:19:11;19.23;;;11.43;;
23338;SDS011;11841;49.368;20.962;2023-11-21T20:21:57;21.13;;;12.15;;
23338;SDS011;11841;49.368;20.962;2023-11-21T20:24:42;22.83;;;12.55;;
23338;SDS011;11841;49.368;20.962;2023-11-21T20:27:29;18.15;;;12.40;;
23338;SDS011;11841;49.368;20.962;2023-11-21T20:30:14;23.45;;;12.15;;
23338;SDS011;11841;49.368;20.962;2023-11-21T20:33:00;23.27;;;12.18;;
23338;SDS011;11841;49.368;20.962;2023-11-21T20:35:51;28.40;;;13.20;;
23338;SDS011;11841;49.368;20.962;2023-11-21T20:38:36;32.97;;;14.45;;
23338;SDS011;11841;49.368;20.962;2023-11-21T20:41:22;25.23;;;12.77;;
23338;SDS011;11841;49.368;20.962;2023-11-21T20:44:07;23.83;;;11.07;;
23338;SDS011;11841;49.368;20.962;2023-11-21T20:46:53;26.52;;;11.85;;
23338;SDS011;11841;49.368;20.962;2023-11-21T20:49:50;20.25;;;12.30;;
23338;SDS011;11841;49.368;20.962;2023-11-21T20:52:43;16.77;;;9.90;;
23338;SDS011;11841;49.368;20.962;2023-11-21T20:55:29;17.15;;;9.88;;
23338;SDS011;11841;49.368;20.962;2023-11-21T20:58:15;19.73;;;11.27;;
23338;SDS011;11841;49.368;20.962;2023-11-21T21:01:00;23.48;;;11.40;;
23338;SDS011;11841;49.368;20.962;2023-11-21T21:03:45;21.60;;;10.77;;
23338;SDS011;11841;49.368;20.962;2023-11-21T21:06:31;18.63;;;10.05;;
23338;SDS011;11841;49.368;20.962;2023-11-21T21:09:16;24.58;;;12.23;;
23338;SDS011;11841;49.368;20.962;2023-11-21T21:12:02;39.70;;;19.13;;
23338;SDS011;11841;49.368;20.962;2023-11-21T21:14:48;34.15;;;16.83;;
23338;SDS011;11841;49.368;20.962;2023-11-21T21:17:33;43.55;;;17.13;;
23338;SDS011;11841;49.368;20.962;2023-11-21T21:20:18;35.92;;;17.23;;
23338;SDS011;11841;49.368;20.962;2023-11-21T21:23:05;45.22;;;20.63;;
23338;SDS011;11841;49.368;20.962;2023-11-21T21:25:51;34.60;;;17.83;;
23338;SDS011;11841;49.368;20.962;2023-11-21T21:28:38;26.20;;;13.63;;
23338;SDS011;11841;49.368;20.962;2023-11-21T21:31:23;22.65;;;11.68;;
23338;SDS011;11841;49.368;20.962;2023-11-21T21:34:09;29.02;;;13.73;;
23338;SDS011;11841;49.368;20.962;2023-11-21T21:36:56;20.42;;;11.40;;
23338;SDS011;11841;49.368;20.962;2023-11-21T21:39:42;21.13;;;12.73;;
23338;SDS011;11841;49.368;20.962;2023-11-21T21:42:27;29.30;;;13.02;;
23338;SDS011;11841;49.368;20.962;2023-11-21T21:45:13;22.10;;;12.05;;
23338;SDS011;11841;49.368;20.962;2023-11-21T21:47:58;27.92;;;13.30;;
23338;SDS011;11841;49.368;20.962;2023-11-21T21:50:44;27.33;;;13.23;;
23338;SDS011;11841;49.368;20.962;2023-11-21T21:53:29;23.33;;;12.20;;
23338;SDS011;11841;49.368;20.962;2023-11-21T21:56:18;52.30;;;19.50;;
23338;SDS011;11841;49.368;20.962;2023-11-21T21:59:04;67.22;;;25.67;;
23338;SDS011;11841;49.368;20.962;2023-11-21T22:01:49;91.38;;;35.10;;
23338;SDS011;11841;49.368;20.962;2023-11-21T22:04:35;128.27;;;39.50;;
23338;SDS011;11841;49.368;20.962;2023-11-21T22:07:20;106.45;;;40.25;;
23338;SDS011;11841;49.368;20.962;2023-11-21T22:10:07;111.30;;;41.60;;
23338;SDS011;11841;49.368;20.962;2023-11-21T22:12:53;120.15;;;44.10;;
23338;SDS011;11841;49.368;20.962;2023-11-21T22:15:39;116.15;;;42.65;;
23338;SDS011;11841;49.368;20.962;2023-11-21T22:18:25;120.90;;;46.22;;
23338;SDS011;11841;49.368;20.962;2023-11-21T22:21:14;119.97;;;44.90;;
23338;SDS011;11841;49.368;20.962;2023-11-21T22:24:02;119.22;;;45.50;;
23338;SDS011;11841;49.368;20.962;2023-11-21T22:26:48;128.88;;;46.28;;
23338;SDS011;11841;49.368;20.962;2023-11-21T22:29:35;124.22;;;45.13;;
23338;SDS011;11841;49.368;20.962;2023-11-21T22:32:20;115.57;;;45.10;;
23338;SDS011;11841;49.368;20.962;2023-11-21T22:35:07;112.65;;;46.67;;
23338;SDS011;11841;49.368;20.962;2023-11-21T22:37:54;103.65;;;44.60;;
23338;SDS011;11841;49.368;20.962;2023-11-21T22:40:39;103.43;;;43.95;;
23338;SDS011;11841;49.368;20.962;2023-11-21T22:43:24;116.70;;;48.20;;
23338;SDS011;11841;49.368;20.962;2023-11-21T22:46:10;107.65;;;44.97;;
23338;SDS011;11841;49.368;20.962;2023-11-21T22:48:57;113.00;;;46.20;;
23338;SDS011;11841;49.368;20.962;2023-11-21T22:51:43;113.50;;;47.33;;
23338;SDS011;11841;49.368;20.962;2023-11-21T22:54:31;69.07;;;27.02;;
23338;SDS011;11841;49.368;20.962;2023-11-21T22:57:16;38.95;;;17.83;;
23338;SDS011;11841;49.368;20.962;2023-11-21T23:00:03;19.85;;;9.88;;
23338;SDS011;11841;49.368;20.962;2023-11-21T23:02:59;10.82;;;5.82;;
23338;SDS011;11841;49.368;20.962;2023-11-21T23:05:45;9.77;;;6.00;;
23338;SDS011;11841;49.368;20.962;2023-11-21T23:08:31;9.23;;;5.05;;
23338;SDS011;11841;49.368;20.962;2023-11-21T23:11:16;5.53;;;3.63;;
23338;SDS011;11841;49.368;20.962;2023-11-21T23:14:01;5.22;;;3.33;;
23338;SDS011;11841;49.368;20.962;2023-11-21T23:16:47;5.38;;;2.42;;
23338;SDS011;11841;49.368;20.962;2023-11-21T23:19:36;4.55;;;2.63;;
23338;SDS011;11841;49.368;20.962;2023-11-21T23:22:32;2.72;;;2.00;;
23338;SDS011;11841;49.368;20.962;2023-11-21T23:25:18;4.40;;;2.50;;
23338;SDS011;11841;49.368;20.962;2023-11-21T23:28:04;4.65;;;2.47;;
23338;SDS011;11841;49.368;20.962;2023-11-21T23:30:50;4.40;;;2.80;;
23338;SDS011;11841;49.368;20.962;2023-11-21T23:33:35;3.30;;;2.15;;
23338;SDS011;11841;49.368;20.962;2023-11-21T23:36:21;5.43;;;2.78;;
23338;SDS011;11841;49.368;20.962;2023-11-21T23:39:07;4.75;;;2.13;;
23338;SDS011;11841;49.368;20.962;2023-11-21T23:41:52;3.97;;;2.97;;
23338;SDS011;11841;49.368;20.962;2023-11-21T23:44:38;4.25;;;2.58;;
23338;SDS011;11841;49.368;20.962;2023-11-21T23:47:23;5.57;;;3.38;;
23338;SDS011;11841;49.368;20.962;2023-11-21T23:50:09;5.05;;;2.65;;
23338;SDS011;11841;49.368;20.962;2023-11-21T23:52:54;7.50;;;3.40;;
23338;SDS011;11841;49.368;20.962;2023-11-21T23:55:39;3.45;;;2.72;;
23338;SDS011;11841;49.368;20.962;2023-11-21T23:58:25;6.45;;;3.70;;
